Time;durP1;ratioP1;P1;durP2;ratioP2;P2;SDS_P1;SDS_P2;PMS_P1;PMS_P2;Temp;Humidity;BMP_temperature;BMP_pressure;BME280_temperature;BME280_humidity;BME280_pressure;Samples;Min_cycle;Max_cycle;Signal;HPM_P1;HPM_P2
2023/03/23 00:00:06;;;;;;;0.10;0.10;;;;;;;4.96;60.95;99525.72;5004639;28;20145;-75
2023/03/23 00:02:37;;;;;;;0.10;0.10;;;;;;;4.94;61.00;99518.91;5007220;28;20050;-75
2023/03/23 00:05:05;;;;;;;0.10;0.10;;;;;;;4.88;61.11;99515.28;4985417;28;20172;-75
2023/03/23 00:07:33;;;;;;;0.10;0.10;;;;;;;4.85;61.43;99523.91;5021485;28;20619;-74
2023/03/23 00:10:02;;;;;;;0.10;0.10;;;;;;;4.84;61.63;99514.13;5005933;28;20073;-73
2023/03/23 00:12:34;;;;;;;0.10;0.10;;;;;;;4.82;61.65;99521.66;5006745;28;20324;-73
2023/03/23 00:15:01;;;;;;;0.10;0.10;;;;;;;4.76;61.68;99507.22;4989072;28;20655;-74
2023/03/23 00:17:30;;;;;;;0.10;0.10;;;;;;;4.79;61.72;99514.03;5004773;28;20050;-75
2023/03/23 00:19:56;;;;;;;0.10;0.10;;;;;;;4.74;61.91;99506.63;5006343;28;20061;-75
2023/03/23 00:22:24;;;;;;;0.10;0.10;;;;;;;4.74;61.80;99501.22;5008472;28;20156;-74
2023/03/23 00:24:52;;;;;;;0.10;0.10;;;;;;;4.83;61.69;99517.88;5009066;28;20312;-75
2023/03/23 00:27:21;;;;;;;0.10;0.10;;;;;;;4.85;61.44;99512.22;5008411;28;20523;-74
2023/03/23 00:29:47;;;;;;;0.10;0.10;;;;;;;4.89;61.41;99505.25;5008558;28;20065;-74
2023/03/23 00:32:14;;;;;;;0.10;0.10;;;;;;;4.89;61.19;99507.97;5012630;28;20058;-74
2023/03/23 00:34:43;;;;;;;0.10;0.10;;;;;;;4.89;61.34;99503.38;5007416;28;20138;-75
2023/03/23 00:37:09;;;;;;;0.10;0.10;;;;;;;4.91;61.25;99503.97;5005439;28;20052;-75
2023/03/23 00:39:37;;;;;;;0.10;0.10;;;;;;;4.88;61.37;99496.31;4992053;28;20486;-75
2023/03/23 00:42:05;;;;;;;0.10;0.10;;;;;;;4.88;61.56;99496.31;5008204;28;20140;-74
2023/03/23 00:44:34;;;;;;;0.10;0.10;;;;;;;4.92;61.32;99505.59;5009021;28;20053;-76
2023/03/23 00:47:02;;;;;;;0.10;0.10;;;;;;;4.93;61.19;99498.31;5007831;28;20424;-75
2023/03/23 00:49:34;;;;;;;0.10;0.10;;;;;;;4.92;61.30;99480.41;5008051;28;20532;-75
2023/03/23 00:52:01;;;;;;;0.10;0.10;;;;;;;4.93;61.51;99495.59;5008091;28;20490;-75
2023/03/23 00:54:28;;;;;;;0.10;0.10;;;;;;;4.89;61.59;99489.00;4989185;28;20343;-74
2023/03/23 00:56:55;;;;;;;0.10;0.10;;;;;;;4.86;61.63;99492.19;5006761;28;20521;-74
2023/03/23 00:59:22;;;;;;;0.00;0.00;;;;;;;4.87;61.74;99478.44;5006453;28;20104;-74
2023/03/23 01:01:51;;;;;;;0.10;0.10;;;;;;;4.87;61.91;99477.59;5006310;28;20054;-75
2023/03/23 01:04:18;;;;;;;0.10;0.10;;;;;;;4.82;62.03;99479.16;5006375;28;20053;-74
2023/03/23 01:06:51;;;;;;;0.10;0.10;;;;;;;4.88;61.80;99480.06;5006756;28;20301;-74
2023/03/23 01:09:20;;;;;;;0.10;0.10;;;;;;;4.90;62.20;99491.47;5005307;28;20497;-74
2023/03/23 01:11:50;;;;;;;0.10;0.10;;;;;;;4.88;62.13;99482.78;4990089;28;20061;-74
2023/03/23 01:14:18;;;;;;;0.10;0.10;;;;;;;4.92;62.20;99477.69;5008705;28;20112;-74
2023/03/23 01:16:46;;;;;;;0.10;0.10;;;;;;;4.90;62.02;99480.63;5006485;28;20092;-74
2023/03/23 01:19:12;;;;;;;0.10;0.10;;;;;;;4.87;62.31;99489.25;5003529;28;20053;-74
2023/03/23 01:21:38;;;;;;;0.10;0.10;;;;;;;4.86;62.54;99486.78;4987004;28;20066;-74
2023/03/23 01:24:06;;;;;;;0.10;0.10;;;;;;;4.84;62.62;99481.63;4987189;28;20054;-74
2023/03/23 01:26:32;;;;;;;0.10;0.10;;;;;;;4.83;62.61;99477.25;4987171;28;20042;-73
2023/03/23 01:28:58;;;;;;;0.10;0.10;;;;;;;4.78;62.84;99478.00;4986843;28;20403;-74
2023/03/23 01:31:27;;;;;;;0.10;0.10;;;;;;;4.79;62.77;99481.53;5002881;28;20105;-74
2023/03/23 01:33:55;;;;;;;0.10;0.10;;;;;;;4.77;62.98;99492.63;4988314;28;20058;-75
2023/03/23 01:36:24;;;;;;;0.17;0.17;;;;;;;4.78;62.82;99472.59;4989959;28;20417;-73
2023/03/23 01:38:50;;;;;;;0.10;0.10;;;;;;;4.76;63.04;99469.31;4988230;28;20064;-74
2023/03/23 01:41:18;;;;;;;0.10;0.10;;;;;;;4.73;63.18;99475.19;4999856;28;20101;-74
2023/03/23 01:43:55;;;;;;;0.10;0.10;;;;;;;4.73;63.21;99452.72;5008428;28;20144;-74
2023/03/23 01:46:22;;;;;;;0.10;0.10;;;;;;;4.70;63.58;99459.44;5007781;28;20539;-73
2023/03/23 01:48:50;;;;;;;0.10;0.10;;;;;;;4.72;63.37;99456.50;5006170;28;20057;-73
2023/03/23 01:51:20;;;;;;;0.10;0.10;;;;;;;4.72;63.54;99453.78;4998661;28;20042;-73
2023/03/23 01:53:54;;;;;;;0.10;0.10;;;;;;;4.66;63.65;99448.25;4986779;28;20042;-74
2023/03/23 01:56:24;;;;;;;0.10;0.10;;;;;;;4.66;63.77;99445.53;4989016;28;20061;-74
2023/03/23 01:58:53;;;;;;;0.10;0.10;;;;;;;4.66;63.97;99450.16;4986640;28;20137;-74
2023/03/23 02:01:24;;;;;;;0.10;0.10;;;;;;;4.60;63.95;99448.41;4971768;28;20062;-74
2023/03/23 02:03:54;;;;;;;0.20;0.10;;;;;;;4.61;63.94;99448.19;4987412;28;20097;-74
2023/03/23 02:06:23;;;;;;;0.10;0.10;;;;;;;4.62;64.00;99443.59;4984089;28;20058;-74
2023/03/23 02:09:06;;;;;;;0.10;0.10;;;;;;;4.62;64.23;99440.88;4969535;28;20133;-74
2023/03/23 02:11:33;;;;;;;0.10;0.10;;;;;;;4.65;64.14;99434.97;4987174;28;20054;-75
2023/03/23 02:14:01;;;;;;;0.10;0.10;;;;;;;4.61;64.20;99437.34;4987198;28;20104;-75
2023/03/23 02:16:35;;;;;;;0.10;0.10;;;;;;;4.62;64.37;99438.97;4972585;28;20053;-74
2023/03/23 02:19:20;;;;;;;0.10;0.10;;;;;;;4.61;64.44;99444.66;4989630;28;20403;-69
2023/03/23 02:22:07;;;;;;;0.10;0.10;;;;;;;4.62;64.27;99443.59;4986274;28;20128;-69
2023/03/23 02:24:51;;;;;;;;;;;;;;;4.58;64.51;99445.97;4986081;28;20058;-69
2023/03/23 02:27:29;;;;;;;0.10;0.10;;;;;;;4.55;64.33;99438.34;4976342;28;20281;-70
2023/03/23 02:30:03;;;;;;;;;;;;;;;4.57;64.64;99444.31;4986752;28;20054;-69
2023/03/23 02:32:56;;;;;;;0.10;0.10;;;;;;;4.46;64.56;99432.50;4987724;28;19981;-69
2023/03/23 02:35:29;;;;;;;0.13;0.10;;;;;;;4.52;64.54;99436.09;4942901;28;20518;-69
2023/03/23 02:38:00;;;;;;;0.10;0.10;;;;;;;4.52;64.84;99438.78;4985851;28;20574;-69
2023/03/23 02:40:33;;;;;;;0.10;0.10;;;;;;;4.46;64.90;99428.94;4986191;28;20521;-69
2023/03/23 02:43:02;;;;;;;0.10;0.10;;;;;;;4.38;65.00;99427.47;4985235;28;20088;-69
2023/03/23 02:45:31;;;;;;;0.10;0.10;;;;;;;4.37;65.38;99431.22;4982171;28;20511;-69
2023/03/23 02:47:58;;;;;;;0.10;0.10;;;;;;;4.33;65.53;99424.66;5006013;28;20070;-69
2023/03/23 02:50:27;;;;;;;;;;;;;;;4.30;65.84;99441.41;5004763;28;20050;-69
2023/03/23 02:52:58;;;;;;;0.10;0.10;;;;;;;4.18;65.74;99426.03;5003563;28;19932;-69
2023/03/23 02:55:28;;;;;;;0.10;0.10;;;;;;;4.21;65.98;99438.22;4980567;28;20557;-70
2023/03/23 02:57:55;;;;;;;0.10;0.10;;;;;;;4.18;66.20;99436.00;4985611;28;20050;-69
2023/03/23 03:00:22;;;;;;;0.10;0.10;;;;;;;4.15;66.29;99434.63;4985387;28;20386;-69
2023/03/23 03:02:52;;;;;;;0.10;0.10;;;;;;;4.08;66.65;99428.53;4984688;28;20057;-69
2023/03/23 03:05:33;;;;;;;0.10;0.10;;;;;;;4.03;66.70;99431.13;4986862;28;20105;-69
2023/03/23 03:08:15;;;;;;;0.10;0.10;;;;;;;4.01;67.04;99439.47;4986388;28;20054;-69
2023/03/23 03:10:49;;;;;;;0.10;0.10;;;;;;;4.04;67.06;99447.09;4982709;28;20080;-69
2023/03/23 03:13:25;;;;;;;0.10;0.10;;;;;;;4.05;67.35;99439.84;4967632;28;20050;-69
2023/03/23 03:15:57;;;;;;;0.10;0.10;;;;;;;3.98;67.65;99437.25;4985493;28;20046;-69
2023/03/23 03:18:27;;;;;;;0.10;0.10;;;;;;;4.00;67.77;99434.31;4985178;28;20050;-69
2023/03/23 03:21:00;;;;;;;0.10;0.10;;;;;;;3.99;67.72;99430.78;4984087;28;20105;-68
2023/03/23 03:23:28;;;;;;;0.10;0.10;;;;;;;3.99;68.04;99435.38;4967976;28;20517;-69
2023/03/23 03:26:00;;;;;;;0.10;0.10;;;;;;;3.97;68.13;99435.63;4983551;28;20043;-69
2023/03/23 03:28:38;;;;;;;0.10;0.10;;;;;;;3.99;68.26;99430.78;4987240;28;20540;-70
2023/03/23 03:31:06;;;;;;;0.10;0.10;;;;;;;3.96;68.05;99425.88;4990039;28;20456;-69
2023/03/23 03:33:33;;;;;;;0.10;0.10;;;;;;;4.00;67.85;99429.72;5005471;28;20543;-69
2023/03/23 03:36:08;;;;;;;0.10;0.10;;;;;;;4.06;68.04;99433.34;4987338;28;20046;-74
2023/03/23 03:38:42;;;;;;;0.10;0.10;;;;;;;3.99;68.16;99408.34;4990812;28;20046;-74
2023/03/23 03:41:08;;;;;;;0.10;0.10;;;;;;;4.07;68.35;99426.88;4982823;28;20124;-74
2023/03/23 03:43:35;;;;;;;0.10;0.10;;;;;;;4.03;68.34;99426.53;4984337;28;20078;-75
2023/03/23 03:46:01;;;;;;;0.10;0.10;;;;;;;4.01;68.48;99427.84;4993563;28;20707;-75
2023/03/23 03:48:28;;;;;;;0.10;0.10;;;;;;;4.00;68.89;99421.59;4996405;28;20046;-74
2023/03/23 03:50:56;;;;;;;0.10;0.10;;;;;;;3.91;68.88;99415.75;4985805;28;20430;-74
2023/03/23 03:53:24;;;;;;;0.10;0.10;;;;;;;3.93;69.17;99432.56;4985939;28;20060;-74
2023/03/23 03:55:55;;;;;;;0.10;0.10;;;;;;;3.95;69.42;99424.22;4986876;28;20042;-75
2023/03/23 03:58:22;;;;;;;0.10;0.10;;;;;;;3.91;69.71;99414.94;4982795;28;20044;-74
2023/03/23 04:00:52;;;;;;;0.10;0.10;;;;;;;3.81;70.26;99426.34;4996314;28;20066;-69
2023/03/23 04:03:22;;;;;;;0.10;0.10;;;;;;;3.71;70.40;99410.75;4981258;28;20089;-69
2023/03/23 04:06:18;;;;;;;0.10;0.10;;;;;;;3.59;70.70;99409.94;4981032;28;20070;-69
2023/03/23 04:08:47;;;;;;;0.10;0.10;;;;;;;3.54;71.27;99410.69;4966807;28;20141;-69
2023/03/23 04:11:14;;;;;;;0.10;0.10;;;;;;;3.44;71.82;99405.88;4985278;28;20050;-69
2023/03/23 04:13:41;;;;;;;0.10;0.10;;;;;;;3.46;72.59;99411.03;4996545;28;20556;-69
2023/03/23 04:16:16;;;;;;;0.10;0.10;;;;;;;3.43;72.54;99400.69;4973254;28;20074;-69
2023/03/23 04:18:44;;;;;;;0.10;0.10;;;;;;;3.45;72.94;99399.41;5004299;28;20042;-68
2023/03/23 04:21:11;;;;;;;0.10;0.10;;;;;;;3.49;73.08;99400.56;4988261;28;20203;-75
2023/03/23 04:23:38;;;;;;;0.10;0.10;;;;;;;3.49;72.94;99403.28;5003627;28;20396;-75
2023/03/23 04:26:08;;;;;;;0.10;0.10;;;;;;;3.42;73.13;99386.34;4974797;28;20066;-69
2023/03/23 04:28:38;;;;;;;0.10;0.10;;;;;;;3.51;73.30;99397.63;4967481;28;20035;-75
2023/03/23 04:31:26;;;;;;;0.17;0.17;;;;;;;3.52;73.53;99396.59;4984783;28;20061;-70
2023/03/23 04:34:01;;;;;;;0.10;0.10;;;;;;;3.57;73.47;99402.09;4984295;28;20058;-69
2023/03/23 04:36:33;;;;;;;0.10;0.10;;;;;;;3.59;73.73;99396.44;4984174;28;20059;-69
2023/03/23 04:39:06;;;;;;;0.10;0.10;;;;;;;3.61;73.54;99394.34;4952155;28;20042;-69
2023/03/23 04:41:37;;;;;;;0.20;0.20;;;;;;;3.61;73.51;99391.63;4984746;28;20054;-69
2023/03/23 04:44:32;;;;;;;;;;;;;;;3.71;73.76;99413.44;4986214;28;20054;-69
2023/03/23 04:47:09;;;;;;;0.20;0.20;;;;;;;3.73;73.14;99397.81;4983498;28;19929;-68
2023/03/23 04:49:39;;;;;;;0.10;0.10;;;;;;;3.75;73.20;99397.56;4965416;28;20095;-75
2023/03/23 04:52:25;;;;;;;0.10;0.10;;;;;;;3.78;73.18;99388.97;4966946;28;20043;-74
2023/03/23 04:55:01;;;;;;;0.10;0.10;;;;;;;3.80;73.22;99387.69;4966995;28;20117;-74
2023/03/23 04:57:31;;;;;;;0.10;0.10;;;;;;;3.85;73.32;99380.72;4983450;28;20596;-74
2023/03/23 05:00:26;;;;;;;;;;;;;;;3.90;73.10;99389.78;4967377;28;20062;-74
2023/03/23 05:02:55;;;;;;;0.10;0.10;;;;;;;3.92;72.79;99393.06;5001719;28;20396;-74
2023/03/23 05:05:25;;;;;;;0.10;0.10;;;;;;;3.97;72.78;99393.13;5005141;28;20054;-74
2023/03/23 05:07:53;;;;;;;0.10;0.10;;;;;;;3.91;72.73;99388.72;5005733;28;20054;-74
2023/03/23 05:10:23;;;;;;;0.20;0.20;;;;;;;4.05;72.62;99401.94;4986493;28;20520;-74
2023/03/23 05:12:54;;;;;;;0.10;0.10;;;;;;;4.07;72.43;99381.72;5005254;28;20041;-69
2023/03/23 05:15:20;;;;;;;0.10;0.10;;;;;;;4.19;72.25;99402.47;5006697;28;20497;-70
2023/03/23 05:17:48;;;;;;;0.10;0.10;;;;;;;4.26;71.88;99400.44;5002737;28;20053;-69
2023/03/23 05:20:20;;;;;;;0.10;0.10;;;;;;;4.31;71.79;99410.56;4982916;28;20059;-69
2023/03/23 05:23:06;;;;;;;0.10;0.10;;;;;;;4.35;71.63;99403.59;4992416;28;20469;-75
2023/03/23 05:25:39;;;;;;;0.10;0.10;;;;;;;4.37;71.21;99396.88;5005952;28;20136;-74
2023/03/23 05:28:12;;;;;;;0.20;0.20;;;;;;;4.48;70.85;99418.69;5006659;28;20572;-76
2023/03/23 05:30:44;;;;;;;0.10;0.10;;;;;;;4.53;70.59;99407.97;5004083;28;20053;-75
2023/03/23 05:33:12;;;;;;;0.20;0.20;;;;;;;4.57;70.45;99402.88;5005231;28;20054;-74
2023/03/23 05:35:49;;;;;;;0.20;0.20;;;;;;;4.62;70.27;99400.25;5006169;28;20137;-69
2023/03/23 05:38:19;;;;;;;0.10;0.10;;;;;;;4.61;70.10;99391.31;5023386;28;20058;-69
2023/03/23 05:40:46;;;;;;;0.10;0.10;;;;;;;4.77;69.92;99399.69;5022810;28;20977;-69
2023/03/23 05:43:17;;;;;;;0.20;0.20;;;;;;;4.83;69.79;99391.41;5002721;28;20050;-69
2023/03/23 05:46:06;;;;;;;0.20;0.20;;;;;;;4.93;69.07;99398.06;4995862;28;20061;-74
2023/03/23 05:48:33;;;;;;;0.20;0.20;;;;;;;5.04;68.90;99407.16;5000821;28;20040;-74
2023/03/23 05:50:59;;;;;;;0.10;0.10;;;;;;;5.14;68.52;99411.91;4973883;28;20162;-73
2023/03/23 05:53:27;;;;;;;;;;;;;;;5.25;67.77;99419.13;4992959;28;20049;-75
2023/03/23 05:55:58;;;;;;;0.20;0.20;;;;;;;5.28;67.46;99402.34;5001197;28;20024;-74
2023/03/23 05:58:40;;;;;;;0.20;0.20;;;;;;;5.44;67.23;99403.38;5003661;28;20057;-69
2023/03/23 06:01:07;;;;;;;0.20;0.20;;;;;;;5.56;66.88;99406.00;5001230;28;20058;-69
2023/03/23 06:03:35;;;;;;;0.20;0.20;;;;;;;5.68;66.38;99411.28;4972284;28;20061;-69
2023/03/23 06:06:09;;;;;;;0.20;0.20;;;;;;;5.76;66.07;99399.19;4988759;28;20046;-69
2023/03/23 06:08:48;;;;;;;0.20;0.20;;;;;;;5.85;65.83;99396.84;4992738;28;20482;-69
2023/03/23 06:11:14;;;;;;;0.20;0.20;;;;;;;5.86;65.30;99401.19;4988213;28;20050;-69
2023/03/23 06:13:53;;;;;;;0.20;0.20;;;;;;;5.96;64.97;99395.91;4991965;28;20073;-69
2023/03/23 06:16:19;;;;;;;0.20;0.20;;;;;;;5.99;64.99;99398.09;4978981;28;20067;-69
2023/03/23 06:19:06;;;;;;;0.10;0.10;;;;;;;6.13;64.49;99384.16;4987307;28;20441;-69
2023/03/23 06:21:34;;;;;;;0.20;0.20;;;;;;;6.23;64.11;99390.50;4989798;28;20065;-74
2023/03/23 06:24:08;;;;;;;0.20;0.20;;;;;;;6.33;63.85;99386.25;4954858;28;20047;-74
2023/03/23 06:26:38;;;;;;;0.20;0.20;;;;;;;6.43;63.45;99388.25;4993671;28;20146;-74
2023/03/23 06:29:12;;;;;;;0.20;0.20;;;;;;;6.59;63.00;99394.63;4979109;28;20046;-74
2023/03/23 06:31:48;;;;;;;0.20;0.20;;;;;;;6.75;62.71;99387.44;4984460;28;20465;-74
2023/03/23 06:34:15;;;;;;;0.20;0.20;;;;;;;6.88;61.91;99387.00;5006252;28;20057;-75
2023/03/23 06:37:00;;;;;;;0.20;0.20;;;;;;;7.07;61.50;99390.09;5001454;28;20034;-74
2023/03/23 06:39:48;;;;;;;0.28;0.28;;;;;;;7.10;61.07;99388.78;5005716;28;20045;-74
2023/03/23 06:42:23;;;;;;;0.20;0.20;;;;;;;7.15;60.96;99371.69;4987769;28;20037;-74
2023/03/23 06:45:00;;;;;;;0.30;0.30;;;;;;;7.34;60.51;99380.22;5006698;28;20050;-73
2023/03/23 06:47:32;;;;;;;0.20;0.20;;;;;;;7.47;60.15;99387.91;4986364;28;20050;-73
2023/03/23 06:49:58;;;;;;;0.20;0.20;;;;;;;7.57;60.06;99389.03;5002899;28;20064;-74
2023/03/23 06:52:27;;;;;;;0.30;0.30;;;;;;;7.64;59.81;99389.59;5020855;28;20494;-75
2023/03/23 06:54:53;;;;;;;0.20;0.20;;;;;;;7.69;59.47;99381.47;5005712;28;20046;-75
2023/03/23 06:57:21;;;;;;;0.20;0.20;;;;;;;7.84;59.00;99380.72;5003142;28;20038;-75
2023/03/23 06:59:49;;;;;;;0.25;0.25;;;;;;;7.93;58.63;99379.13;4980248;28;20041;-75
2023/03/23 07:02:18;;;;;;;0.20;0.20;;;;;;;7.91;58.20;99375.84;5002427;28;20045;-74
2023/03/23 07:04:48;;;;;;;0.30;0.30;;;;;;;7.97;58.27;99378.56;4972601;28;20050;-69
2023/03/23 07:07:20;;;;;;;0.30;0.30;;;;;;;8.03;58.15;99375.59;4997674;28;20069;-70
2023/03/23 07:09:58;;;;;;;0.20;0.20;;;;;;;8.13;57.97;99376.72;4999925;28;20061;-69
2023/03/23 07:12:25;;;;;;;0.20;0.20;;;;;;;8.27;57.49;99374.28;4983954;28;20047;-69
2023/03/23 07:14:52;;;;;;;0.30;0.30;;;;;;;8.31;57.24;99370.75;4987524;28;20137;-70
2023/03/23 07:17:19;;;;;;;0.22;0.22;;;;;;;8.39;56.99;99377.59;5004425;28;20046;-70
2023/03/23 07:20:12;;;;;;;0.25;0.25;;;;;;;8.63;56.58;99380.63;5000959;28;20057;-69
2023/03/23 07:22:39;;;;;;;0.20;0.20;;;;;;;8.77;55.41;99364.53;4980933;28;20050;-69
2023/03/23 07:25:17;;;;;;;0.20;0.20;;;;;;;8.79;55.22;99367.00;4967402;28;20046;-69
2023/03/23 07:27:52;;;;;;;0.25;0.20;;;;;;;8.86;55.47;99348.44;4969342;28;20518;-69
2023/03/23 07:30:19;;;;;;;0.30;0.30;;;;;;;9.22;54.30;99374.84;5000669;28;20144;-69
2023/03/23 07:32:47;;;;;;;0.20;0.20;;;;;;;9.30;54.02;99374.28;5002921;28;20108;-69
2023/03/23 07:35:14;;;;;;;0.20;0.20;;;;;;;9.28;53.49;99362.81;5004496;28;20096;-69
2023/03/23 07:37:54;;;;;;;0.20;0.20;;;;;;;9.28;53.72;99362.81;4986517;28;20643;-75
2023/03/23 07:40:21;;;;;;;0.30;0.30;;;;;;;9.36;53.70;99355.97;5004578;28;20334;-75
2023/03/23 07:42:53;;;;;;;0.20;0.20;;;;;;;9.40;53.24;99364.44;4996580;28;20108;-75
2023/03/23 07:45:28;;;;;;;0.32;0.30;;;;;;;9.30;53.40;99366.13;4983567;28;20437;-75
2023/03/23 07:47:59;;;;;;;0.28;0.28;;;;;;;9.42;53.37;99360.34;4984429;28;20097;-75
2023/03/23 07:50:26;;;;;;;0.30;0.30;;;;;;;9.50;53.01;99335.19;4985651;28;20050;-75
2023/03/23 07:52:56;;;;;;;0.20;0.20;;;;;;;9.77;52.50;99350.38;4975151;28;20060;-75
2023/03/23 07:55:25;;;;;;;0.20;0.20;;;;;;;10.10;51.50;99344.47;5000241;28;20575;-75
2023/03/23 07:58:03;;;;;;;0.20;0.20;;;;;;;10.60;50.11;99330.72;5002397;28;20084;-76
2023/03/23 08:00:30;;;;;;;0.20;0.20;;;;;;;10.75;49.23;99328.97;5004004;28;20509;-74
2023/03/23 08:02:59;;;;;;;0.30;0.30;;;;;;;10.73;48.61;99344.84;5002388;28;20108;-75
2023/03/23 08:05:51;;;;;;;0.20;0.20;;;;;;;10.77;48.97;99334.94;4989314;28;20046;-74
2023/03/23 08:08:37;;;;;;;0.20;0.20;;;;;;;10.95;47.98;99349.84;4993677;28;20466;-75
2023/03/23 08:11:26;;;;;;;0.20;0.20;;;;;;;11.09;47.91;99336.31;4999252;28;20124;-75
2023/03/23 08:14:28;;;;;;;0.25;0.25;;;;;;;11.38;46.95;99337.38;4960112;28;20551;-74
2023/03/23 08:17:14;;;;;;;0.30;0.30;;;;;;;11.46;46.94;99333.97;4987541;28;20108;-74
2023/03/23 08:20:12;;;;;;;0.20;0.20;;;;;;;11.48;45.69;99335.31;5002656;28;20096;-75
2023/03/23 08:23:02;;;;;;;0.30;0.30;;;;;;;11.50;45.48;99332.28;4994836;28;20049;-75
2023/03/23 08:25:51;;;;;;;0.28;0.28;;;;;;;11.35;45.74;99355.16;4990234;28;20054;-75
2023/03/23 08:28:38;;;;;;;0.30;0.30;;;;;;;11.39;45.30;99355.41;4974023;28;20069;-75
2023/03/23 08:31:24;;;;;;;0.20;0.20;;;;;;;11.63;44.64;99326.13;5000569;28;20041;-74
2023/03/23 08:34:09;;;;;;;0.30;0.30;;;;;;;12.00;44.32;99307.25;4995094;28;20053;-75
2023/03/23 08:36:57;;;;;;;0.30;0.30;;;;;;;12.56;42.98;99317.66;4995027;28;20055;-76
2023/03/23 08:39:43;;;;;;;0.30;0.30;;;;;;;12.54;42.33;99293.28;4983261;28;20057;-75
2023/03/23 08:42:37;;;;;;;0.30;0.30;;;;;;;12.85;42.19;99306.47;4989790;28;20150;-74
2023/03/23 08:45:20;;;;;;;0.30;0.30;;;;;;;13.27;41.26;99316.69;4991329;28;20081;-75
2023/03/23 08:47:51;;;;;;;0.30;0.30;;;;;;;13.40;40.24;99304.84;4975525;28;20092;-69
2023/03/23 08:50:44;;;;;;;0.30;0.30;;;;;;;13.46;40.62;99298.19;4997674;28;20081;-70
2023/03/23 08:53:32;;;;;;;0.30;0.30;;;;;;;13.95;39.25;99288.63;5000590;28;20493;-71
2023/03/23 08:56:22;;;;;;;0.30;0.30;;;;;;;14.44;38.08;99273.16;5000384;28;20057;-69
2023/03/23 08:59:14;;;;;;;0.40;0.40;;;;;;;14.58;37.58;99278.59;5016092;28;20178;-70
2023/03/23 09:02:00;;;;;;;0.30;0.30;;;;;;;14.65;37.27;99282.81;4990024;28;20118;-70
2023/03/23 09:04:36;;;;;;;0.30;0.30;;;;;;;14.69;37.15;99256.31;4989693;28;20049;-69
2023/03/23 09:07:22;;;;;;;0.30;0.30;;;;;;;15.18;36.85;99261.88;5021137;28;20733;-69
2023/03/23 09:09:49;;;;;;;0.40;0.40;;;;;;;15.55;35.98;99268.00;5005121;28;20061;-69
2023/03/23 09:12:16;;;;;;;0.40;0.40;;;;;;;15.57;35.66;99257.47;5006318;28;20099;-69
2023/03/23 09:14:42;;;;;;;0.40;0.40;;;;;;;15.47;35.91;99256.97;5007228;28;20145;-70
2023/03/23 09:17:09;;;;;;;0.40;0.40;;;;;;;15.62;35.37;99239.13;5002563;28;20038;-71
2023/03/23 09:19:36;;;;;;;0.40;0.40;;;;;;;15.60;35.54;99231.19;4989234;28;20619;-70
2023/03/23 09:22:03;;;;;;;0.40;0.40;;;;;;;15.69;36.01;99237.53;5005083;28;20045;-70
2023/03/23 09:24:30;;;;;;;0.40;0.40;;;;;;;16.06;35.14;99230.91;5006856;28;20042;-71
2023/03/23 09:26:58;;;;;;;0.50;0.50;;;;;;;16.43;35.07;99242.38;5008183;28;20085;-71
2023/03/23 09:29:25;;;;;;;0.60;0.60;;;;;;;16.55;34.49;99239.75;5003991;28;20488;-70
2023/03/23 09:31:51;;;;;;;0.60;0.60;;;;;;;16.57;34.18;99243.00;5006499;28;20046;-70
2023/03/23 09:34:18;;;;;;;0.60;0.60;;;;;;;16.43;34.27;99234.09;5004404;28;20532;-71
2023/03/23 09:36:44;;;;;;;0.60;0.60;;;;;;;16.48;34.00;99244.97;5002916;28;20069;-71
2023/03/23 09:39:11;;;;;;;0.70;0.70;;;;;;;16.27;34.60;99237.38;5006600;28;20058;-70
2023/03/23 09:42:06;;;;;;;0.60;0.60;;;;;;;16.50;33.94;99233.59;5005209;28;20093;-71
2023/03/23 09:44:49;;;;;;;0.60;0.60;;;;;;;16.70;33.15;99235.66;4999512;28;20065;-71
2023/03/23 09:47:21;;;;;;;0.75;0.75;;;;;;;16.81;32.96;99215.97;5005902;28;20058;-70
2023/03/23 09:49:53;;;;;;;0.70;0.70;;;;;;;17.01;33.08;99222.72;5006954;28;20137;-70
2023/03/23 09:52:19;;;;;;;0.90;0.90;;;;;;;17.43;32.31;99213.72;5006421;28;20045;-70
2023/03/23 09:54:47;;;;;;;0.70;0.70;;;;;;;17.79;31.37;99203.19;5004221;28;20064;-70
2023/03/23 09:57:27;;;;;;;0.80;0.80;;;;;;;17.57;31.42;99203.22;5006251;28;20153;-70
2023/03/23 09:59:59;;;;;;;0.70;0.70;;;;;;;17.74;31.15;99217.22;4987344;28;20080;-71
2023/03/23 10:02:30;;;;;;;0.70;0.70;;;;;;;17.67;31.14;99181.84;5003742;28;20120;-71
2023/03/23 10:05:04;;;;;;;0.80;0.80;;;;;;;17.29;31.59;99206.50;5015607;28;20512;-76
2023/03/23 10:07:30;;;;;;;0.80;0.80;;;;;;;17.16;31.80;99182.69;4996103;28;20069;-70
2023/03/23 10:09:59;;;;;;;0.80;0.80;;;;;;;17.21;31.43;99182.50;4981465;28;20073;-70
2023/03/23 10:12:33;;;;;;;0.90;0.90;;;;;;;17.14;32.02;99180.25;4995221;28;20575;-70
2023/03/23 10:15:11;;;;;;;0.90;0.90;;;;;;;17.34;31.79;99175.09;4990327;28;20519;-70
2023/03/23 10:17:48;;;;;;;0.90;0.90;;;;;;;17.63;31.15;99158.78;5008148;28;20548;-70
2023/03/23 10:20:25;;;;;;;0.90;0.90;;;;;;;17.28;31.65;99162.63;5006323;28;20050;-70
2023/03/23 10:22:58;;;;;;;0.90;0.90;;;;;;;17.37;31.69;99166.16;5004904;28;20195;-70
2023/03/23 10:25:29;;;;;;;1.00;1.00;;;;;;;17.58;31.38;99171.69;5005142;28;20148;-70
2023/03/23 10:28:01;;;;;;;1.00;1.00;;;;;;;17.87;30.53;99171.91;4999314;28;20057;-70
2023/03/23 10:30:33;;;;;;;1.10;1.10;;;;;;;17.79;30.49;99164.50;4989340;28;20038;-70
2023/03/23 10:33:04;;;;;;;1.10;1.10;;;;;;;17.86;30.30;99139.88;4995276;28;20049;-69
2023/03/23 10:35:35;;;;;;;1.10;1.10;;;;;;;18.29;30.16;99168.28;5003816;28;20057;-70
2023/03/23 10:38:05;;;;;;;1.10;1.10;;;;;;;18.58;29.46;99163.72;5002619;28;20057;-70
2023/03/23 10:40:34;;;;;;;1.10;1.10;;;;;;;18.80;29.40;99143.06;5005236;28;20507;-70
2023/03/23 10:43:01;;;;;;;1.10;1.10;;;;;;;18.99;29.02;99145.28;5009020;28;20050;-70
2023/03/23 10:45:32;;;;;;;1.10;1.10;;;;;;;19.24;28.74;99164.63;5006708;28;20157;-70
2023/03/23 10:48:09;;;;;;;1.10;1.10;;;;;;;19.32;28.13;99160.13;5005536;28;20045;-70
2023/03/23 10:50:37;;;;;;;1.00;1.00;;;;;;;19.24;28.72;99156.31;4985187;28;20057;-70
2023/03/23 10:53:12;;;;;;;1.10;1.10;;;;;;;19.27;28.23;99152.84;4990763;28;20161;-70
2023/03/23 10:55:40;;;;;;;1.10;1.10;;;;;;;19.97;27.77;99164.00;4995971;28;20186;-70
2023/03/23 10:58:08;;;;;;;1.10;1.10;;;;;;;;;;5000476;28;20057;-70
2023/03/23 11:00:41;;;;;;;1.10;1.10;;;;;;;20.16;26.84;99156.97;4636778;28;10000562;-70
2023/03/23 11:03:32;;;;;;;1.10;1.10;;;;;;;19.47;27.58;99155.81;4999837;28;20058;-70
2023/03/23 11:06:03;;;;;;;1.20;1.20;;;;;;;19.45;27.94;99155.38;5001203;28;20065;-69
2023/03/23 11:08:34;;;;;;;1.30;1.20;;;;;;;19.54;27.71;99144.16;4989051;28;20060;-70
2023/03/23 11:11:10;;;;;;;1.23;1.20;;;;;;;19.98;27.19;99141.47;5007449;28;20046;-70
2023/03/23 11:13:43;;;;;;;1.27;1.20;;;;;;;19.75;26.96;99135.63;5009478;28;20092;-70
2023/03/23 11:16:22;;;;;;;1.30;1.20;;;;;;;19.60;27.71;99131.63;5007692;28;20060;-70
2023/03/23 11:18:48;;;;;;;1.10;1.10;;;;;;;20.33;26.93;99137.19;5004951;28;20057;-70
2023/03/23 11:21:16;;;;;;;1.10;1.10;;;;;;;20.69;26.25;99154.78;4991655;28;20453;-71
2023/03/23 11:23:48;;;;;;;0.98;0.98;;;;;;;20.12;26.74;99127.16;4990860;28;20038;-72
2023/03/23 11:26:17;;;;;;;1.00;1.00;;;;;;;19.31;27.93;99152.19;4999701;28;20140;-70
2023/03/23 11:28:49;;;;;;;1.00;1.00;;;;;;;18.93;28.14;99149.41;5003156;28;20062;-70
2023/03/23 11:31:17;;;;;;;0.90;0.90;;;;;;;18.69;28.50;99139.16;5002031;28;20054;-71
2023/03/23 11:33:51;;;;;;;1.00;1.00;;;;;;;18.82;28.44;99138.00;5003480;28;20448;-72
2023/03/23 11:36:20;;;;;;;1.10;1.10;;;;;;;18.99;28.20;99153.59;4982424;28;20316;-71
2023/03/23 11:38:46;;;;;;;0.80;0.80;;;;;;;19.27;27.16;99168.69;4981927;28;20062;-71
2023/03/23 11:41:18;;;;;;;0.90;0.90;;;;;;;18.09;28.90;99142.28;4983937;28;20182;-71
2023/03/23 11:43:46;;;;;;;1.10;1.10;;;;;;;18.02;29.66;99147.53;4981122;28;20426;-71
2023/03/23 11:46:25;;;;;;;0.80;0.80;;;;;;;18.25;29.24;99134.16;4980676;28;20081;-71
2023/03/23 11:48:57;;;;;;;0.50;0.50;;;;;;;17.63;30.25;99144.97;4982475;28;20062;-71
2023/03/23 11:51:33;;;;;;;0.50;0.50;;;;;;;16.51;31.22;99139.44;4983459;28;20144;-70
2023/03/23 11:54:10;;;;;;;0.40;0.40;;;;;;;15.48;33.17;99154.69;4986890;28;20533;-70
2023/03/23 11:56:38;;;;;;;0.40;0.40;;;;;;;14.76;34.39;99137.59;4970069;28;20850;-70
2023/03/23 11:59:13;;;;;;;0.30;0.30;;;;;;;14.08;35.42;99155.03;4989761;28;20039;-70
2023/03/23 12:01:50;;;;;;;0.40;0.40;;;;;;;13.51;36.73;99138.00;4994865;28;20056;-70
2023/03/23 12:04:37;;;;;;;0.40;0.40;;;;;;;13.52;37.14;99139.63;4995001;28;20047;-76
2023/03/23 12:07:15;;;;;;;0.40;0.40;;;;;;;13.89;36.48;99136.78;4998827;28;20189;-75